Time,TemperatureF,DewpointF,PressureIn,WindDirection,WindDirectionDegrees,WindSpeedMPH,WindSpeedGustMPH,Humidity,HourlyPrecipIn,Conditions,Clouds,dailyrainin,SoftwareType,DateUTC
2013-10-20 00:04:00,59.7,59.4,29.98,West,270,0.0,1.0,99,0.00,,,0.01,meteohub,2013-10-20 07:04:00,
2013-10-20 00:09:00,59.5,59.2,29.98,West,270,0.0,0.0,99,0.00,,,0.00,meteohub,2013-10-20 07:09:00,
2013-10-20 00:14:00,59.2,58.8,29.98,West,270,0.0,1.0,99,0.00,,,0.00,meteohub,2013-10-20 07:14:00,
2013-10-20 00:19:00,58.5,58.1,29.98,West,270,0.0,1.0,99,0.00,,,0.00,meteohub,2013-10-20 07:19:00,
2013-10-20 00:24:00,58.1,57.7,29.99,West,270,0.0,1.0,99,0.00,,,0.00,meteohub,2013-10-20 07:24:00,
2013-10-20 00:29:00,57.6,57.2,29.99,West,270,0.0,0.0,99,0.00,,,0.00,meteohub,2013-10-20 07:29:00,
2013-10-20 00:34:00,57.2,56.8,29.99,West,270,0.0,0.0,99,0.00,,,0.00,meteohub,2013-10-20 07:34:00,
2013-10-20 00:39:00,57.0,56.7,29.98,West,270,0.0,0.0,99,0.00,,,0.00,meteohub,2013-10-20 07:39:00,
2013-10-20 00:44:00,57.6,57.2,29.98,West,270,0.0,0.0,99,0.00,,,0.00,meteohub,2013-10-20 07:44:00,
2013-10-20 00:49:00,57.4,57.0,29.98,West,270,0.0,0.0,99,0.00,,,0.00,meteohub,2013-10-20 07:49:00,
2013-10-20 00:54:00,57.2,56.8,29.98,West,270,1.0,0.0,99,0.00,,,0.00,meteohub,2013-10-20 07:54:00,
2013-10-20 00:59:00,57.0,56.7,29.98,SE,135,2.0,2.0,99,0.00,,,0.00,meteohub,2013-10-20 07:59:00,
2013-10-20 01:04:00,56.8,56.5,29.98,SE,135,2.0,2.0,99,0.00,,,0.00,meteohub,2013-10-20 08:04:00,
2013-10-20 01:09:00,56.7,56.3,29.98,SE,135,0.0,2.0,99,0.00,,,0.00,meteohub,2013-10-20 08:09:00,
2013-10-20 01:14:00,56.7,56.3,29.98,SE,135,0.0,2.0,99,0.00,,,0.00,meteohub,2013-10-20 08:14:00,
2013-10-20 01:19:00,56.8,56.5,29.98,SE,135,2.0,2.0,99,0.00,,,0.00,meteohub,2013-10-20 08:19:00,
2013-10-20 01:24:00,57.0,56.7,29.98,SE,135,1.0,2.0,99,0.00,,,0.00,meteohub,2013-10-20 08:24:00,
2013-10-20 01:29:00,56.8,56.5,29.98,SE,135,0.0,2.0,99,0.00,,,0.00,meteohub,2013-10-20 08:29:00,
2013-10-20 01:34:00,56.7,56.3,29.98,SE,135,0.0,2.0,99,0.00,,,0.00,meteohub,2013-10-20 08:34:00,
2013-10-20 01:39:00,57.2,56.8,29.98,SE,135,0.0,1.0,99,0.00,,,0.00,meteohub,2013-10-20 08:39:00,
2013-10-20 01:44:00,57.2,56.8,29.98,SE,135,0.0,1.0,99,0.00,,,0.00,meteohub,2013-10-20 08:44:00,
2013-10-20 01:49:00,57.2,56.8,29.98,SE,135,0.0,1.0,99,0.00,,,0.00,meteohub,2013-10-20 08:49:00,
2013-10-20 01:54:00,57.2,56.8,29.98,SE,135,0.0,1.0,99,0.00,,,0.00,meteohub,2013-10-20 08:54:00,
2013-10-20 01:59:00,57.0,56.7,29.98,SE,135,0.0,0.0,99,0.00,,,0.00,meteohub,2013-10-20 08:59:00,
2013-10-20 02:04:00,56.7,56.3,29.98,SE,135,0.0,0.0,99,0.00,,,0.00,meteohub,2013-10-20 09:04:00,
2013-10-20 02:10:00,56.5,56.1,29.98,SE,135,0.0,0.0,99,0.00,,,0.00,meteohub,2013-10-20 09:10:00,
2013-10-20 02:15:00,57.0,56.7,29.97,SE,135,2.0,0.0,99,0.00,,,0.00,meteohub,2013-10-20 09:15:00,
2013-10-20 02:20:00,57.9,57.6,29.97,SE,135,2.0,2.0,99,0.00,,,0.00,meteohub,2013-10-20 09:20:00,
2013-10-20 02:25:00,58.1,57.7,29.97,SE,135,2.0,2.0,99,0.00,,,0.00,meteohub,2013-10-20 09:25:00,
2013-10-20 02:30:00,58.1,57.7,29.97,SE,135,2.0,2.0,99,0.00,,,0.00,meteohub,2013-10-20 09:30:00,
2013-10-20 02:35:00,58.3,57.9,29.97,SE,135,1.0,2.0,99,0.00,,,0.00,meteohub,2013-10-20 09:35:00,
2013-10-20 02:40:00,58.6,58.3,29.98,SE,135,1.0,2.0,99,0.00,,,0.00,meteohub,2013-10-20 09:40:00,
2013-10-20 02:45:00,58.8,58.5,29.97,SE,135,0.0,2.0,99,0.00,,,0.00,meteohub,2013-10-20 09:45:00,
2013-10-20 02:50:00,59.0,58.6,29.97,SE,135,2.0,2.0,99,0.00,,,0.00,meteohub,2013-10-20 09:50:00,
2013-10-20 02:55:00,59.0,58.6,29.97,SE,135,2.0,2.0,99,0.00,,,0.00,meteohub,2013-10-20 09:55:00,
2013-10-20 03:00:00,59.2,58.8,29.97,South,180,2.0,3.0,99,0.00,,,0.00,meteohub,2013-10-20 10:00:00,
2013-10-20 03:05:00,59.2,58.8,29.97,South,180,2.0,3.0,99,0.00,,,0.00,meteohub,2013-10-20 10:05:00,
2013-10-20 03:10:00,59.2,58.8,29.96,South,180,2.0,3.0,99,0.00,,,0.00,meteohub,2013-10-20 10:10:00,
2013-10-20 03:15:00,59.2,58.8,29.96,South,180,2.0,3.0,99,0.00,,,0.00,meteohub,2013-10-20 10:15:00,
2013-10-20 03:20:00,59.2,58.8,29.96,South,180,1.0,2.0,99,0.00,,,0.00,meteohub,2013-10-20 10:20:00,
2013-10-20 03:25:00,59.4,59.0,29.96,South,180,1.0,2.0,99,0.00,,,0.00,meteohub,2013-10-20 10:25:00,
2013-10-20 03:30:00,59.5,59.2,29.96,South,180,1.0,2.0,99,0.00,,,0.00,meteohub,2013-10-20 10:30:00,
2013-10-20 03:35:00,59.7,59.4,29.96,South,180,3.0,3.0,99,0.00,,,0.00,meteohub,2013-10-20 10:35:00,
2013-10-20 03:40:00,59.7,59.4,29.96,South,180,2.0,2.0,99,0.00,,,0.00,meteohub,2013-10-20 10:40:00,
2013-10-20 03:45:00,59.9,59.5,29.96,South,180,1.0,3.0,99,0.00,,,0.00,meteohub,2013-10-20 10:45:00,
2013-10-20 03:50:00,59.9,59.5,29.96,South,180,0.0,3.0,99,0.00,,,0.00,meteohub,2013-10-20 10:50:00,
2013-10-20 03:55:00,60.3,59.9,29.96,South,180,2.0,2.0,99,0.00,,,0.00,meteohub,2013-10-20 10:55:00,
2013-10-20 04:00:00,60.4,60.1,29.96,South,180,0.0,2.0,99,0.00,,,0.00,meteohub,2013-10-20 11:00:00,
2013-10-20 04:05:00,60.6,60.3,29.96,South,180,1.0,2.0,99,0.00,,,0.00,meteohub,2013-10-20 11:05:00,
2013-10-20 04:10:00,60.8,60.4,29.95,South,180,2.0,2.0,99,0.00,,,0.00,meteohub,2013-10-20 11:10:00,
2013-10-20 04:15:00,61.0,60.6,29.96,South,180,2.0,3.0,99,0.00,,,0.00,meteohub,2013-10-20 11:15:00,
2013-10-20 04:20:00,61.0,60.6,29.95,South,180,1.0,3.0,99,0.00,,,0.00,meteohub,2013-10-20 11:20:00,
2013-10-20 04:25:00,61.0,60.6,29.95,South,180,1.0,3.0,99,0.00,,,0.00,meteohub,2013-10-20 11:25:00,
2013-10-20 04:30:00,61.0,60.6,29.95,South,180,0.0,2.0,99,0.00,,,0.00,meteohub,2013-10-20 11:30:00,
2013-10-20 04:34:00,61.0,60.6,29.95,South,180,1.0,4.0,99,0.00,,,0.00,meteohub,2013-10-20 11:34:00,
2013-10-20 04:39:00,60.8,60.4,29.95,South,180,1.0,4.0,99,0.00,,,0.00,meteohub,2013-10-20 11:39:00,
2013-10-20 04:44:00,60.8,60.4,29.95,South,180,0.0,4.0,99,0.00,,,0.00,meteohub,2013-10-20 11:44:00,
2013-10-20 04:49:00,60.8,60.4,29.96,South,180,2.0,5.0,99,0.00,,,0.00,meteohub,2013-10-20 11:49:00,
2013-10-20 04:54:00,60.8,60.4,29.95,South,180,2.0,5.0,99,0.00,,,0.00,meteohub,2013-10-20 11:54:00,
2013-10-20 04:59:00,60.8,60.4,29.95,SW,225,1.0,5.0,99,0.00,,,0.00,meteohub,2013-10-20 11:59:00,
2013-10-20 05:04:00,60.8,60.4,29.96,South,180,1.0,4.0,99,0.00,,,0.00,meteohub,2013-10-20 12:04:00,
2013-10-20 05:09:00,60.6,60.3,29.96,West,270,0.0,4.0,99,0.00,,,0.00,meteohub,2013-10-20 12:09:00,
2013-10-20 05:14:00,60.6,60.3,29.96,SW,225,0.0,2.0,99,0.00,,,0.00,meteohub,2013-10-20 12:14:00,
2013-10-20 05:19:00,60.6,60.3,29.96,West,270,2.0,2.0,99,0.00,,,0.00,meteohub,2013-10-20 12:19:00,
2013-10-20 05:24:00,60.8,60.4,29.96,West,270,2.0,2.0,99,0.00,,,0.00,meteohub,2013-10-20 12:24:00,
2013-10-20 05:29:00,60.6,60.3,29.96,West,270,4.0,4.0,99,0.00,,,0.00,meteohub,2013-10-20 12:29:00,
2013-10-20 05:35:00,60.6,60.3,29.96,South,180,2.0,4.0,99,0.00,,,0.00,meteohub,2013-10-20 12:35:00,
2013-10-20 05:40:00,60.6,60.3,29.96,West,270,2.0,5.0,99,0.00,,,0.00,meteohub,2013-10-20 12:40:00,
2013-10-20 05:45:00,60.6,60.3,29.96,West,270,4.0,5.0,99,0.00,,,0.00,meteohub,2013-10-20 12:45:00,
2013-10-20 05:50:00,60.6,60.3,29.96,WNW,293,4.0,5.0,99,0.00,,,0.00,meteohub,2013-10-20 12:50:00,
2013-10-20 05:55:00,60.6,60.3,29.96,South,180,2.0,4.0,99,0.00,,,0.00,meteohub,2013-10-20 12:55:00,
2013-10-20 06:00:00,60.6,60.3,29.96,South,180,2.0,4.0,99,0.00,,,0.00,meteohub,2013-10-20 13:00:00,
2013-10-20 06:05:00,60.6,60.3,29.96,SSW,203,4.0,4.0,99,0.00,,,0.00,meteohub,2013-10-20 13:05:00,
2013-10-20 06:10:00,60.8,60.4,29.96,South,180,4.0,4.0,99,0.00,,,0.00,meteohub,2013-10-20 13:10:00,
2013-10-20 06:15:00,60.8,60.4,29.96,West,270,3.0,4.0,99,0.00,,,0.00,meteohub,2013-10-20 13:15:00,
2013-10-20 06:20:00,61.0,60.6,29.96,SW,225,1.0,4.0,99,0.00,,,0.00,meteohub,2013-10-20 13:20:00,
2013-10-20 06:25:00,60.8,60.4,29.96,South,180,1.0,4.0,99,0.00,,,0.00,meteohub,2013-10-20 13:25:00,
2013-10-20 06:30:00,61.2,60.8,29.96,South,180,3.0,3.0,99,0.00,,,0.00,meteohub,2013-10-20 13:30:00,
2013-10-20 06:35:00,61.2,60.8,29.97,NW,315,0.0,3.0,99,0.00,,,0.00,meteohub,2013-10-20 13:35:00,
2013-10-20 06:40:00,61.3,61.0,29.96,West,270,2.0,4.0,99,0.00,,,0.00,meteohub,2013-10-20 13:40:00,
2013-10-20 06:45:00,61.3,61.0,29.96,West,270,2.0,4.0,99,0.00,,,0.00,meteohub,2013-10-20 13:45:00,
2013-10-20 06:50:00,61.3,61.0,29.97,West,270,4.0,4.0,99,0.00,,,0.00,meteohub,2013-10-20 13:50:00,
2013-10-20 06:55:00,61.2,60.8,29.97,West,270,3.0,4.0,99,0.00,,,0.00,meteohub,2013-10-20 13:55:00,
2013-10-20 07:00:00,61.3,61.0,29.97,West,270,4.0,4.0,99,0.00,,,0.00,meteohub,2013-10-20 14:00:00,
2013-10-20 07:05:00,61.3,61.0,29.97,West,270,2.0,4.0,99,0.00,,,0.00,meteohub,2013-10-20 14:05:00,
2013-10-20 07:10:00,61.2,60.8,29.97,NW,315,4.0,4.0,99,0.00,,,0.00,meteohub,2013-10-20 14:10:00,
2013-10-20 07:15:00,61.0,60.6,29.97,NW,315,4.0,4.0,99,0.00,,,0.00,meteohub,2013-10-20 14:15:00,
2013-10-20 07:20:00,61.0,60.6,29.98,NW,315,2.0,6.0,99,0.00,,,0.00,meteohub,2013-10-20 14:20:00,
2013-10-20 07:25:00,60.8,60.4,29.97,NW,315,1.0,6.0,99,0.00,,,0.00,meteohub,2013-10-20 14:25:00,
2013-10-20 07:30:00,60.8,60.4,29.98,SW,225,2.0,6.0,99,0.00,,,0.00,meteohub,2013-10-20 14:30:00,
2013-10-20 07:35:00,60.8,60.4,29.98,SW,225,1.0,4.0,99,0.00,,,0.00,meteohub,2013-10-20 14:35:00,
2013-10-20 07:40:00,60.8,60.4,29.98,SW,225,1.0,4.0,99,0.00,,,0.00,meteohub,2013-10-20 14:40:00,
2013-10-20 07:45:00,60.8,60.4,29.98,SW,225,0.0,4.0,99,0.00,,,0.00,meteohub,2013-10-20 14:45:00,
2013-10-20 07:50:00,61.0,60.6,29.98,SW,225,2.0,2.0,99,0.00,,,0.00,meteohub,2013-10-20 14:50:00,
2013-10-20 07:55:00,61.0,60.6,29.98,SW,225,2.0,2.0,99,0.00,,,0.00,meteohub,2013-10-20 14:55:00,
2013-10-20 08:00:00,61.0,60.6,29.98,West,270,2.0,2.0,99,0.00,,,0.00,meteohub,2013-10-20 15:00:00,
2013-10-20 08:05:00,61.0,60.6,29.98,South,180,3.0,4.0,99,0.00,,,0.00,meteohub,2013-10-20 15:05:00,
2013-10-20 08:10:00,61.0,60.6,29.99,South,180,2.0,4.0,99,0.00,,,0.00,meteohub,2013-10-20 15:10:00,
2013-10-20 08:15:00,61.2,60.8,29.99,SE,135,2.0,4.0,99,0.00,,,0.00,meteohub,2013-10-20 15:15:00,
2013-10-20 08:20:00,61.3,61.0,29.99,SE,135,0.0,3.0,99,0.00,,,0.00,meteohub,2013-10-20 15:20:00,
2013-10-20 08:25:00,61.5,61.2,29.99,WNW,293,4.0,4.0,99,0.00,,,0.00,meteohub,2013-10-20 15:25:00,
2013-10-20 08:30:00,61.3,61.0,29.99,WNW,293,5.0,5.0,99,0.00,,,0.00,meteohub,2013-10-20 15:30:00,
2013-10-20 08:35:00,61.7,61.3,29.99,South,180,1.0,6.0,99,0.00,,,0.00,meteohub,2013-10-20 15:35:00,
2013-10-20 08:40:00,62.1,61.7,29.99,South,180,1.0,6.0,99,0.00,,,0.00,meteohub,2013-10-20 15:40:00,
2013-10-20 08:45:00,62.6,62.2,29.99,South,180,1.0,6.0,99,0.00,,,0.00,meteohub,2013-10-20 15:45:00,
2013-10-20 08:50:00,63.0,62.6,29.99,NW,315,1.0,4.0,99,0.00,,,0.00,meteohub,2013-10-20 15:50:00,
2013-10-20 08:55:00,63.1,62.8,29.99,NW,315,2.0,3.0,99,0.00,,,0.00,meteohub,2013-10-20 15:55:00,
2013-10-20 09:00:00,63.3,63.0,29.99,NW,315,1.0,3.0,99,0.00,,,0.00,meteohub,2013-10-20 16:00:00,
2013-10-20 09:05:00,63.9,63.5,30.00,North,0,2.0,3.0,99,0.00,,,0.00,meteohub,2013-10-20 16:05:00,
2013-10-20 09:10:00,64.4,64.0,30.00,North,0,1.0,3.0,99,0.00,,,0.00,meteohub,2013-10-20 16:10:00,
2013-10-20 09:15:00,64.0,63.5,30.00,NW,315,2.0,2.0,98,0.00,,,0.00,meteohub,2013-10-20 16:15:00,
2013-10-20 09:20:00,64.0,63.1,30.00,NW,315,4.0,4.0,97,0.00,,,0.00,meteohub,2013-10-20 16:20:00,
2013-10-20 09:25:00,63.7,62.2,30.00,NW,315,4.0,4.0,95,0.00,,,0.00,meteohub,2013-10-20 16:25:00,
2013-10-20 09:30:00,63.9,62.4,30.00,West,270,2.0,5.0,95,0.00,,,0.00,meteohub,2013-10-20 16:30:00,
2013-10-20 09:35:00,64.0,62.6,30.00,SE,135,2.0,5.0,95,0.00,,,0.00,meteohub,2013-10-20 16:35:00,
2013-10-20 09:36:00,64.2,62.8,30.00,SE,135,2.0,5.0,95,0.00,,,0.00,meteohub,2013-10-20 16:36:00,
2013-10-20 09:41:00,64.6,62.8,30.00,SW,225,2.0,4.0,94,0.00,,,0.00,meteohub,2013-10-20 16:41:00,
2013-10-20 09:46:00,65.5,63.7,30.00,SW,225,1.0,3.0,94,0.00,,,0.00,meteohub,2013-10-20 16:46:00,
2013-10-20 09:51:00,66.2,63.9,30.00,SSW,203,2.0,3.0,92,0.00,,,0.00,meteohub,2013-10-20 16:51:00,
2013-10-20 09:56:00,66.4,63.0,29.99,WSW,248,2.0,3.0,89,0.00,,,0.00,meteohub,2013-10-20 16:56:00,
2013-10-20 10:01:00,66.7,63.1,29.99,North,0,4.0,5.0,88,0.00,,,0.00,meteohub,2013-10-20 17:01:00,
2013-10-20 10:06:00,70.7,66.0,30.00,West,270,3.0,5.0,85,0.00,,,0.00,meteohub,2013-10-20 17:06:00,
2013-10-20 10:11:00,70.9,63.0,30.00,SW,225,1.0,5.0,76,0.00,,,0.00,meteohub,2013-10-20 17:11:00,
2013-10-20 10:16:00,69.4,61.9,29.99,North,0,2.0,5.0,77,0.00,,,0.00,meteohub,2013-10-20 17:16:00,
2013-10-20 10:21:00,69.1,63.3,30.00,North,0,2.0,5.0,82,0.00,,,0.00,meteohub,2013-10-20 17:21:00,
2013-10-20 10:26:00,70.0,63.1,29.99,NW,315,2.0,4.0,79,0.00,,,0.00,meteohub,2013-10-20 17:26:00,
2013-10-20 10:31:00,70.3,62.8,29.99,West,270,4.0,5.0,77,0.00,,,0.00,meteohub,2013-10-20 17:31:00,
2013-10-20 10:36:00,70.7,62.4,29.99,WNW,293,7.0,7.0,75,0.00,,,0.00,meteohub,2013-10-20 17:36:00,
2013-10-20 10:41:00,70.3,62.4,29.99,West,270,3.0,7.0,76,0.00,,,0.00,meteohub,2013-10-20 17:41:00,
2013-10-20 10:46:00,70.5,62.6,29.99,NW,315,3.0,7.0,76,0.00,,,0.00,meteohub,2013-10-20 17:46:00,
2013-10-20 10:51:00,71.2,63.0,29.99,West,270,4.0,7.0,75,0.00,,,0.00,meteohub,2013-10-20 17:51:00,
2013-10-20 10:56:00,69.4,61.9,30.00,West,270,8.0,8.0,77,0.00,,,0.00,meteohub,2013-10-20 17:56:00,
2013-10-20 11:01:00,69.3,62.4,29.99,North,0,3.0,8.0,79,0.00,,,0.00,meteohub,2013-10-20 18:01:00,
2013-10-20 11:06:00,70.0,63.1,29.99,West,270,4.0,8.0,79,0.00,,,0.00,meteohub,2013-10-20 18:06:00,
2013-10-20 11:11:00,70.2,62.6,29.99,WNW,293,8.0,8.0,77,0.00,,,0.00,meteohub,2013-10-20 18:11:00,
2013-10-20 11:16:00,69.4,63.0,29.99,North,0,6.0,9.0,80,0.00,,,0.00,meteohub,2013-10-20 18:16:00,
2013-10-20 11:21:00,69.6,63.1,29.99,NW,315,7.0,9.0,80,0.00,,,0.00,meteohub,2013-10-20 18:21:00,
2013-10-20 11:26:00,69.4,62.2,29.99,NW,315,4.0,9.0,78,0.00,,,0.00,meteohub,2013-10-20 18:26:00,
2013-10-20 11:31:00,69.1,62.2,29.99,West,270,6.0,7.0,79,0.00,,,0.00,meteohub,2013-10-20 18:31:00,
2013-10-20 11:36:00,68.9,62.4,29.99,NW,315,8.0,8.0,80,0.00,,,0.00,meteohub,2013-10-20 18:36:00,
2013-10-20 11:41:00,68.7,62.2,29.99,NW,315,9.0,9.0,80,0.00,,,0.00,meteohub,2013-10-20 18:41:00,
2013-10-20 11:46:00,69.1,62.2,29.99,West,270,6.0,9.0,79,0.00,,,0.00,meteohub,2013-10-20 18:46:00,
2013-10-20 11:51:00,70.0,62.4,29.98,NW,315,5.0,9.0,77,0.00,,,0.00,meteohub,2013-10-20 18:51:00,
2013-10-20 11:56:00,70.0,61.7,29.98,NW,315,5.0,9.0,75,0.00,,,0.00,meteohub,2013-10-20 18:56:00,
2013-10-20 12:01:00,70.9,62.6,29.98,South,180,5.0,8.0,75,0.00,,,0.00,meteohub,2013-10-20 19:01:00,
2013-10-20 12:06:00,71.6,62.1,29.98,NW,315,4.0,8.0,72,0.00,,,0.00,meteohub,2013-10-20 19:06:00,
2013-10-20 12:11:00,72.7,62.2,29.97,NW,315,3.0,8.0,70,0.00,,,0.00,meteohub,2013-10-20 19:11:00,
2013-10-20 12:16:00,72.7,62.2,29.97,South,180,1.0,6.0,70,0.00,,,0.00,meteohub,2013-10-20 19:16:00,
2013-10-20 12:21:00,73.0,62.2,29.97,NW,315,6.0,6.0,69,0.00,,,0.00,meteohub,2013-10-20 19:21:00,
2013-10-20 12:26:00,72.9,62.1,29.97,West,270,4.0,9.0,69,0.00,,,0.00,meteohub,2013-10-20 19:26:00,
2013-10-20 12:31:00,72.9,62.4,29.97,South,180,4.0,9.0,70,0.00,,,0.00,meteohub,2013-10-20 19:31:00,
2013-10-20 12:36:00,73.4,63.0,29.96,NW,315,4.0,8.0,70,0.00,,,0.00,meteohub,2013-10-20 19:36:00,
2013-10-20 12:41:00,73.2,62.8,29.97,NW,315,6.0,8.0,70,0.00,,,0.00,meteohub,2013-10-20 19:41:00,
2013-10-20 12:46:00,73.0,63.1,29.97,SW,225,8.0,9.0,71,0.00,,,0.00,meteohub,2013-10-20 19:46:00,
2013-10-20 12:51:00,72.5,63.3,29.96,NW,315,9.0,11.0,73,0.00,,,0.00,meteohub,2013-10-20 19:51:00,
2013-10-20 12:56:00,71.6,63.3,29.96,NW,315,8.0,11.0,75,0.00,,,0.00,meteohub,2013-10-20 19:56:00,
2013-10-20 13:01:00,71.8,63.0,29.96,NW,315,8.0,12.0,74,0.00,,,0.00,meteohub,2013-10-20 20:01:00,
2013-10-20 13:06:00,71.2,63.0,29.96,NNW,338,7.0,12.0,75,0.00,,,0.00,meteohub,2013-10-20 20:06:00,
2013-10-20 13:11:00,72.0,62.4,29.96,SW,225,8.0,12.0,72,0.00,,,0.00,meteohub,2013-10-20 20:11:00,
2013-10-20 13:16:00,71.6,62.4,29.95,NW,315,8.0,10.0,73,0.00,,,0.00,meteohub,2013-10-20 20:16:00,
2013-10-20 13:21:00,71.4,62.8,29.95,West,270,12.0,12.0,74,0.00,,,0.00,meteohub,2013-10-20 20:21:00,
2013-10-20 13:26:00,70.9,62.6,29.95,NW,315,8.0,12.0,75,0.00,,,0.00,meteohub,2013-10-20 20:26:00,
2013-10-20 13:31:00,71.2,62.6,29.94,West,270,8.0,12.0,74,0.00,,,0.00,meteohub,2013-10-20 20:31:00,
2013-10-20 13:36:00,71.4,62.2,29.94,NW,315,9.0,12.0,73,0.00,,,0.00,meteohub,2013-10-20 20:36:00,
2013-10-20 13:41:00,71.2,62.1,29.94,NNW,338,8.0,11.0,73,0.00,,,0.00,meteohub,2013-10-20 20:41:00,
2013-10-20 13:46:00,71.2,63.0,29.94,NW,315,7.0,11.0,75,0.00,,,0.00,meteohub,2013-10-20 20:46:00,
2013-10-20 13:51:00,71.1,62.4,29.94,West,270,8.0,11.0,74,0.00,,,0.00,meteohub,2013-10-20 20:51:00,
2013-10-20 13:57:00,71.1,62.8,29.94,NW,315,10.0,11.0,75,0.00,,,0.00,meteohub,2013-10-20 20:57:00,
2013-10-20 14:02:00,70.9,62.6,29.94,NW,315,7.0,11.0,75,0.00,,,0.00,meteohub,2013-10-20 21:02:00,
2013-10-20 14:07:00,70.2,62.6,29.93,NW,315,9.0,11.0,77,0.00,,,0.00,meteohub,2013-10-20 21:07:00,
2013-10-20 14:12:00,70.2,62.6,29.93,West,270,5.0,10.0,77,0.00,,,0.00,meteohub,2013-10-20 21:12:00,
2013-10-20 14:17:00,70.5,62.6,29.93,NW,315,10.0,10.0,76,0.00,,,0.00,meteohub,2013-10-20 21:17:00,
2013-10-20 14:22:00,70.5,62.2,29.93,NW,315,8.0,10.0,75,0.00,,,0.00,meteohub,2013-10-20 21:22:00,
2013-10-20 14:27:00,70.0,62.1,29.93,NW,315,9.0,11.0,76,0.00,,,0.00,meteohub,2013-10-20 21:27:00,
2013-10-20 14:32:00,70.0,62.8,29.92,WNW,293,10.0,11.0,78,0.00,,,0.00,meteohub,2013-10-20 21:32:00,
2013-10-20 14:37:00,70.0,62.4,29.92,NW,315,11.0,11.0,77,0.00,,,0.00,meteohub,2013-10-20 21:37:00,
2013-10-20 14:42:00,69.8,62.2,29.92,NW,315,8.0,11.0,77,0.00,,,0.00,meteohub,2013-10-20 21:42:00,
2013-10-20 14:47:00,69.8,62.6,29.92,NW,315,11.0,11.0,78,0.00,,,0.00,meteohub,2013-10-20 21:47:00,
2013-10-20 14:52:00,69.6,62.8,29.92,NW,315,9.0,12.0,79,0.00,,,0.00,meteohub,2013-10-20 21:52:00,
2013-10-20 14:57:00,70.0,62.8,29.92,West,270,8.0,12.0,78,0.00,,,0.00,meteohub,2013-10-20 21:57:00,
2013-10-20 15:02:00,70.2,62.6,29.92,NW,315,9.0,12.0,77,0.00,,,0.00,meteohub,2013-10-20 22:02:00,
2013-10-20 15:07:00,70.2,63.0,29.93,NW,315,9.0,12.0,78,0.00,,,0.00,meteohub,2013-10-20 22:07:00,
2013-10-20 15:12:00,70.2,62.6,29.92,NW,315,6.0,12.0,77,0.00,,,0.00,meteohub,2013-10-20 22:12:00,
2013-10-20 15:17:00,70.0,62.8,29.92,NW,315,11.0,11.0,78,0.00,,,0.00,meteohub,2013-10-20 22:17:00,
2013-10-20 15:22:00,70.0,62.8,29.92,North,0,10.0,12.0,78,0.00,,,0.00,meteohub,2013-10-20 22:22:00,
2013-10-20 15:27:00,70.3,63.1,29.92,NW,315,8.0,12.0,78,0.00,,,0.00,meteohub,2013-10-20 22:27:00,
2013-10-20 15:32:00,70.5,63.0,29.92,NW,315,10.0,11.0,77,0.00,,,0.00,meteohub,2013-10-20 22:32:00,
2013-10-20 15:37:00,70.5,63.0,29.92,NW,315,11.0,11.0,77,0.00,,,0.00,meteohub,2013-10-20 22:37:00,
2013-10-20 15:42:00,70.3,62.8,29.92,NW,315,11.0,11.0,77,0.00,,,0.00,meteohub,2013-10-20 22:42:00,
2013-10-20 15:47:00,70.3,63.1,29.91,West,270,8.0,11.0,78,0.00,,,0.00,meteohub,2013-10-20 22:47:00,
2013-10-20 15:52:00,70.3,63.1,29.91,NW,315,9.0,11.0,78,0.00,,,0.00,meteohub,2013-10-20 22:52:00,
2013-10-20 15:57:00,70.2,62.6,29.91,West,270,11.0,11.0,77,0.00,,,0.00,meteohub,2013-10-20 22:57:00,
2013-10-20 16:02:00,70.2,63.0,29.91,NW,315,9.0,11.0,78,0.00,,,0.00,meteohub,2013-10-20 23:02:00,
2013-10-20 16:07:00,69.8,63.0,29.91,WNW,293,8.0,11.0,79,0.00,,,0.00,meteohub,2013-10-20 23:07:00,
2013-10-20 16:12:00,69.8,63.0,29.91,NW,315,11.0,12.0,79,0.00,,,0.00,meteohub,2013-10-20 23:12:00,
2013-10-20 16:17:00,70.0,63.1,29.91,West,270,8.0,13.0,79,0.00,,,0.00,meteohub,2013-10-20 23:17:00,
2013-10-20 16:22:00,69.6,62.4,29.91,NW,315,11.0,13.0,78,0.00,,,0.00,meteohub,2013-10-20 23:22:00,
2013-10-20 16:27:00,69.4,62.6,29.91,NW,315,10.0,12.0,79,0.00,,,0.00,meteohub,2013-10-20 23:27:00,
2013-10-20 16:32:00,69.3,62.4,29.91,NW,315,8.0,12.0,79,0.00,,,0.00,meteohub,2013-10-20 23:32:00,
2013-10-20 16:37:00,69.8,63.0,29.91,WNW,293,8.0,12.0,79,0.00,,,0.00,meteohub,2013-10-20 23:37:00,
2013-10-20 16:42:00,69.3,62.4,29.91,WNW,293,8.0,11.0,79,0.00,,,0.00,meteohub,2013-10-20 23:42:00,
2013-10-20 16:47:00,69.1,62.2,29.91,NW,315,8.0,9.0,79,0.00,,,0.00,meteohub,2013-10-20 23:47:00,
2013-10-20 16:52:00,69.3,62.4,29.91,West,270,4.0,9.0,79,0.00,,,0.00,meteohub,2013-10-20 23:52:00,
2013-10-20 16:57:00,69.1,62.6,29.91,NW,315,8.0,9.0,80,0.00,,,0.00,meteohub,2013-10-20 23:57:00,
2013-10-20 17:02:00,69.1,62.6,29.91,West,270,8.0,8.0,80,0.00,,,0.00,meteohub,2013-10-21 00:02:00,
2013-10-20 17:07:00,68.7,62.6,29.91,NW,315,8.0,8.0,81,0.00,,,0.00,meteohub,2013-10-21 00:07:00,
2013-10-20 17:12:00,68.5,62.8,29.91,NW,315,6.0,8.0,82,0.00,,,0.00,meteohub,2013-10-21 00:12:00,
2013-10-20 17:17:00,68.5,62.4,29.91,NW,315,6.0,8.0,81,0.00,,,0.00,meteohub,2013-10-21 00:17:00,
2013-10-20 17:22:00,68.0,62.6,29.91,WNW,293,5.0,8.0,83,0.00,,,0.00,meteohub,2013-10-21 00:22:00,
2013-10-20 17:27:00,67.6,62.2,29.91,NW,315,7.0,10.0,83,0.00,,,0.00,meteohub,2013-10-21 00:27:00,
2013-10-20 17:32:00,67.6,62.6,29.91,WNW,293,6.0,10.0,84,0.00,,,0.00,meteohub,2013-10-21 00:32:00,
2013-10-20 17:37:00,67.3,62.2,29.91,WNW,293,7.0,8.0,84,0.00,,,0.00,meteohub,2013-10-21 00:37:00,
2013-10-20 17:42:00,66.6,62.2,29.91,WNW,293,4.0,8.0,86,0.00,,,0.00,meteohub,2013-10-21 00:42:00,
2013-10-20 17:47:00,66.0,62.1,29.90,NW,315,5.0,8.0,87,0.00,,,0.00,meteohub,2013-10-21 00:47:00,
2013-10-20 17:52:00,65.8,61.9,29.91,WNW,293,4.0,7.0,87,0.00,,,0.00,meteohub,2013-10-21 00:52:00,
2013-10-20 17:57:00,65.7,62.1,29.91,WNW,293,3.0,6.0,88,0.00,,,0.00,meteohub,2013-10-21 00:57:00,
2013-10-20 18:02:00,65.7,62.1,29.91,WNW,293,4.0,6.0,88,0.00,,,0.00,meteohub,2013-10-21 01:02:00,
2013-10-20 18:07:00,65.5,61.9,29.91,WNW,293,4.0,5.0,88,0.00,,,0.00,meteohub,2013-10-21 01:07:00,
2013-10-20 18:12:00,65.3,61.7,29.91,WNW,293,3.0,5.0,88,0.00,,,0.00,meteohub,2013-10-21 01:12:00,
2013-10-20 18:18:00,65.1,61.9,29.91,NW,315,3.0,4.0,89,0.00,,,0.00,meteohub,2013-10-21 01:18:00,
2013-10-20 18:23:00,64.9,61.9,29.91,NW,315,2.0,4.0,90,0.00,,,0.00,meteohub,2013-10-21 01:23:00,
2013-10-20 18:28:00,64.6,61.9,29.91,NW,315,2.0,4.0,91,0.00,,,0.00,meteohub,2013-10-21 01:28:00,
2013-10-20 18:33:00,64.4,62.1,29.91,WNW,293,2.0,4.0,92,0.00,,,0.00,meteohub,2013-10-21 01:33:00,
2013-10-20 18:38:00,64.0,61.7,29.91,West,270,2.0,3.0,92,0.00,,,0.00,meteohub,2013-10-21 01:38:00,
2013-10-20 18:43:00,63.9,61.9,29.91,West,270,2.0,3.0,93,0.00,,,0.00,meteohub,2013-10-21 01:43:00,
2013-10-20 18:48:00,63.7,62.2,29.92,West,270,3.0,3.0,95,0.00,,,0.00,meteohub,2013-10-21 01:48:00,
2013-10-20 18:53:00,63.5,62.4,29.92,SW,225,3.0,4.0,96,0.00,,,0.00,meteohub,2013-10-21 01:53:00,
2013-10-20 18:58:00,63.1,62.1,29.92,SW,225,1.0,4.0,96,0.00,,,0.00,meteohub,2013-10-21 01:58:00,
2013-10-20 19:03:00,62.6,61.2,29.92,West,270,0.0,4.0,95,0.00,,,0.00,meteohub,2013-10-21 02:03:00,
2013-10-20 19:08:00,62.1,60.6,29.92,SW,225,0.0,3.0,95,0.00,,,0.00,meteohub,2013-10-21 02:08:00,
2013-10-20 19:13:00,61.9,60.8,29.92,SW,225,0.0,1.0,96,0.00,,,0.00,meteohub,2013-10-21 02:13:00,
2013-10-20 19:18:00,61.7,60.8,29.92,SW,225,0.0,1.0,97,0.00,,,0.00,meteohub,2013-10-21 02:18:00,
2013-10-20 19:23:00,61.5,61.0,29.92,SW,225,0.0,1.0,98,0.00,,,0.00,meteohub,2013-10-21 02:23:00,
2013-10-20 19:28:00,61.3,60.8,29.92,SW,225,0.0,0.0,98,0.00,,,0.00,meteohub,2013-10-21 02:28:00,
2013-10-20 19:33:00,61.3,61.0,29.93,SW,225,0.0,0.0,99,0.00,,,0.00,meteohub,2013-10-21 02:33:00,
2013-10-20 19:38:00,61.3,61.0,29.93,SW,225,0.0,0.0,99,0.00,,,0.00,meteohub,2013-10-21 02:38:00,
2013-10-20 19:43:00,61.2,60.8,29.93,SW,225,0.0,0.0,99,0.00,,,0.00,meteohub,2013-10-21 02:43:00,
2013-10-20 19:48:00,61.0,60.6,29.93,SW,225,0.0,0.0,99,0.00,,,0.00,meteohub,2013-10-21 02:48:00,
2013-10-20 19:53:00,61.0,60.6,29.93,SW,225,0.0,0.0,99,0.00,,,0.00,meteohub,2013-10-21 02:53:00,
2013-10-20 19:58:00,60.8,60.4,29.93,SW,225,1.0,0.0,99,0.00,,,0.00,meteohub,2013-10-21 02:58:00,
2013-10-20 20:03:00,60.6,60.3,29.93,SW,225,1.0,1.0,99,0.00,,,0.00,meteohub,2013-10-21 03:03:00,
2013-10-20 20:08:00,60.6,60.3,29.93,West,270,0.0,1.0,99,0.00,,,0.00,meteohub,2013-10-21 03:08:00,
2013-10-20 20:13:00,60.3,59.9,29.93,West,270,0.0,1.0,99,0.00,,,0.00,meteohub,2013-10-21 03:13:00,
2013-10-20 20:18:00,60.3,59.9,29.94,West,270,0.0,1.0,99,0.00,,,0.00,meteohub,2013-10-21 03:18:00,
2013-10-20 20:23:00,59.9,59.5,29.94,West,270,0.0,0.0,99,0.00,,,0.00,meteohub,2013-10-21 03:23:00,
2013-10-20 20:28:00,59.5,59.2,29.94,West,270,0.0,0.0,99,0.00,,,0.00,meteohub,2013-10-21 03:28:00,
2013-10-20 20:33:00,59.4,59.0,29.93,West,270,1.0,1.0,99,0.00,,,0.00,meteohub,2013-10-21 03:33:00,
2013-10-20 20:38:00,59.5,59.2,29.94,West,270,0.0,1.0,99,0.00,,,0.00,meteohub,2013-10-21 03:38:00,
2013-10-20 20:43:00,59.4,59.0,29.94,West,270,0.0,1.0,99,0.00,,,0.00,meteohub,2013-10-21 03:43:00,
2013-10-20 20:48:00,59.2,58.8,29.94,West,270,0.0,1.0,99,0.00,,,0.00,meteohub,2013-10-21 03:48:00,
2013-10-20 20:53:00,59.2,58.8,29.94,West,270,0.0,0.0,99,0.00,,,0.00,meteohub,2013-10-21 03:53:00,
2013-10-20 20:58:00,59.2,58.8,29.94,North,0,1.0,2.0,99,0.00,,,0.00,meteohub,2013-10-21 03:58:00,
2013-10-20 21:01:00,59.2,58.8,29.94,North,0,2.0,2.0,99,0.00,,,0.00,meteohub,2013-10-21 04:01:00,
2013-10-20 21:06:00,59.2,58.8,29.95,North,0,0.0,2.0,99,0.00,,,0.00,meteohub,2013-10-21 04:06:00,
2013-10-20 21:11:00,58.8,58.5,29.94,North,0,0.0,2.0,99,0.00,,,0.00,meteohub,2013-10-21 04:11:00,
2013-10-20 21:16:00,58.5,58.1,29.95,North,0,0.0,2.0,99,0.00,,,0.00,meteohub,2013-10-21 04:16:00,
2013-10-20 21:22:00,58.5,58.1,29.95,North,0,0.0,1.0,99,0.00,,,0.00,meteohub,2013-10-21 04:22:00,
2013-10-20 21:27:00,58.5,58.1,29.95,North,0,0.0,0.0,99,0.00,,,0.00,meteohub,2013-10-21 04:27:00,
2013-10-20 21:32:00,58.3,57.9,29.94,North,0,0.0,0.0,99,0.00,,,0.00,meteohub,2013-10-21 04:32:00,
2013-10-20 21:37:00,58.1,57.7,29.95,North,0,0.0,0.0,99,0.00,,,0.00,meteohub,2013-10-21 04:37:00,
2013-10-20 21:42:00,57.9,57.6,29.95,North,0,0.0,0.0,99,0.00,,,0.00,meteohub,2013-10-21 04:42:00,
2013-10-20 21:47:00,58.1,57.7,29.95,North,0,2.0,0.0,99,0.00,,,0.00,meteohub,2013-10-21 04:47:00,
2013-10-20 21:52:00,57.9,57.6,29.95,North,0,0.0,2.0,99,0.00,,,0.00,meteohub,2013-10-21 04:52:00,
2013-10-20 21:57:00,57.6,57.2,29.95,North,0,2.0,2.0,99,0.00,,,0.00,meteohub,2013-10-21 04:57:00,
2013-10-20 22:02:00,57.2,56.8,29.96,North,0,1.0,2.0,99,0.00,,,0.00,meteohub,2013-10-21 05:02:00,
2013-10-20 22:07:00,57.0,56.7,29.96,North,0,0.0,2.0,99,0.00,,,0.00,meteohub,2013-10-21 05:07:00,
2013-10-20 22:12:00,56.8,56.5,29.95,North,0,2.0,2.0,99,0.00,,,0.00,meteohub,2013-10-21 05:12:00,
2013-10-20 22:17:00,56.8,56.5,29.96,North,0,1.0,2.0,99,0.00,,,0.00,meteohub,2013-10-21 05:17:00,
2013-10-20 22:22:00,57.2,56.8,29.96,North,0,2.0,2.0,99,0.00,,,0.00,meteohub,2013-10-21 05:22:00,
2013-10-20 22:27:00,57.4,57.0,29.96,North,0,0.0,2.0,99,0.00,,,0.00,meteohub,2013-10-21 05:27:00,
2013-10-20 22:32:00,57.0,56.7,29.96,North,0,0.0,2.0,99,0.00,,,0.00,meteohub,2013-10-21 05:32:00,
2013-10-20 22:37:00,56.8,56.5,29.96,North,0,1.0,2.0,99,0.00,,,0.00,meteohub,2013-10-21 05:37:00,
2013-10-20 22:42:00,56.7,56.3,29.96,North,0,0.0,2.0,99,0.00,,,0.00,meteohub,2013-10-21 05:42:00,
2013-10-20 22:47:00,56.5,56.1,29.96,North,0,1.0,2.0,99,0.00,,,0.00,meteohub,2013-10-21 05:47:00,
2013-10-20 22:52:00,56.8,56.5,29.96,North,0,1.0,2.0,99,0.00,,,0.00,meteohub,2013-10-21 05:52:00,
2013-10-20 22:57:00,56.8,56.5,29.96,North,0,1.0,1.0,99,0.00,,,0.00,meteohub,2013-10-21 05:57:00,
2013-10-20 23:02:00,56.8,56.5,29.96,North,0,0.0,1.0,99,0.00,,,0.00,meteohub,2013-10-21 06:02:00,
2013-10-20 23:07:00,56.8,56.5,29.96,North,0,1.0,2.0,99,0.00,,,0.00,meteohub,2013-10-21 06:07:00,
2013-10-20 23:12:00,56.7,56.3,29.96,North,0,0.0,2.0,99,0.00,,,0.00,meteohub,2013-10-21 06:12:00,
2013-10-20 23:17:00,56.3,55.9,29.96,North,0,0.0,1.0,99,0.00,,,0.00,meteohub,2013-10-21 06:17:00,
2013-10-20 23:22:00,55.9,55.6,29.96,North,0,0.0,1.0,99,0.00,,,0.00,meteohub,2013-10-21 06:22:00,
2013-10-20 23:27:00,55.6,55.2,29.95,North,0,0.0,0.0,99,0.00,,,0.00,meteohub,2013-10-21 06:27:00,
2013-10-20 23:32:00,55.9,55.6,29.95,North,0,0.0,0.0,99,0.00,,,0.00,meteohub,2013-10-21 06:32:00,
2013-10-20 23:37:00,55.9,55.6,29.96,North,0,0.0,0.0,99,0.00,,,0.00,meteohub,2013-10-21 06:37:00,
2013-10-20 23:42:00,56.5,56.1,29.95,North,0,2.0,0.0,99,0.00,,,0.00,meteohub,2013-10-21 06:42:00,
2013-10-20 23:47:00,56.7,56.3,29.95,North,0,0.0,2.0,99,0.00,,,0.00,meteohub,2013-10-21 06:47:00,
2013-10-20 23:52:00,56.8,56.5,29.95,North,0,2.0,2.0,99,0.00,,,0.00,meteohub,2013-10-21 06:52:00,
2013-10-20 23:57:00,56.7,56.3,29.95,NE,45,2.0,3.0,99,0.00,,,0.00,meteohub,2013-10-21 06:57:00,